Time;durP1;ratioP1;P1;durP2;ratioP2;P2;SDS_P1;SDS_P2;PMS_P1;PMS_P2;Temp;Humidity;BMP_temperature;BMP_pressure;BME280_temperature;BME280_humidity;BME280_pressure;Samples;Min_cycle;Max_cycle;Signal;HPM_P1;HPM_P2
2023/08/05 00:01:25;;;;;;;8.50;6.70;;;23.30;99.90;;;;;;4978492;28;20138;-85
2023/08/05 00:03:52;;;;;;;6.70;5.97;;;23.40;99.90;;;;;;4979934;28;20045;-84
2023/08/05 00:06:21;;;;;;;12.60;6.85;;;23.30;99.90;;;;;;4985260;28;20038;-84
2023/08/05 00:08:49;;;;;;;8.10;6.35;;;23.20;99.90;;;;;;4992319;28;20034;-83
2023/08/05 00:11:16;;;;;;;8.00;6.55;;;23.20;99.90;;;;;;4989054;28;20639;-83
2023/08/05 00:13:43;;;;;;;7.38;6.38;;;23.10;99.90;;;;;;4978805;28;20066;-83
2023/08/05 00:16:10;;;;;;;6.93;6.22;;;23.20;99.90;;;;;;4978818;28;20039;-84
2023/08/05 00:18:38;;;;;;;7.03;6.32;;;23.30;99.90;;;;;;4980749;28;20038;-83
2023/08/05 00:21:05;;;;;;;9.05;6.65;;;23.20;99.90;;;;;;4980847;28;20530;-84
2023/08/05 00:23:33;;;;;;;8.82;6.82;;;23.20;99.90;;;;;;4979607;28;20042;-84
2023/08/05 00:26:01;;;;;;;7.75;6.93;;;23.30;99.90;;;;;;4980367;28;20042;-83
2023/08/05 00:28:28;;;;;;;7.90;7.07;;;23.20;99.90;;;;;;4979761;28;20046;-84
2023/08/05 00:30:55;;;;;;;12.23;8.70;;;23.20;99.90;;;;;;4982999;28;20035;-86
2023/08/05 00:33:23;;;;;;;9.68;8.43;;;23.20;99.90;;;;;;4989652;28;20070;-85
2023/08/05 00:35:50;;;;;;;7.25;6.53;;;23.20;99.90;;;;;;4989382;28;20039;-84
2023/08/05 00:38:17;;;;;;;8.98;8.07;;;23.10;99.90;;;;;;4978592;28;20105;-84
2023/08/05 00:40:46;;;;;;;8.15;6.38;;;23.10;99.90;;;;;;4989797;28;20043;-84
2023/08/05 00:43:13;;;;;;;7.78;6.55;;;23.10;99.90;;;;;;4982413;28;20134;-84
2023/08/05 00:45:41;;;;;;;7.88;6.85;;;23.20;99.90;;;;;;4970841;28;20034;-85
2023/08/05 00:48:08;;;;;;;9.30;7.15;;;23.20;99.90;;;;;;4969830;28;20050;-84
2023/08/05 00:50:36;;;;;;;7.85;6.97;;;23.20;99.90;;;;;;4974250;28;20144;-83
2023/08/05 00:53:03;;;;;;;9.38;6.55;;;23.10;99.90;;;;;;4999470;28;20042;-83
2023/08/05 00:55:33;;;;;;;8.18;6.20;;;23.20;99.90;;;;;;4999369;28;20234;-85
2023/08/05 00:58:02;;;;;;;9.48;7.00;;;23.10;99.90;;;;;;4991247;28;20090;-84
2023/08/05 01:00:29;;;;;;;6.90;6.20;;;23.20;99.90;;;;;;4985563;28;20109;-85
2023/08/05 01:02:57;;;;;;;7.80;6.05;;;23.10;99.90;;;;;;4980855;28;20047;-84
2023/08/05 01:05:25;;;;;;;7.40;6.50;;;23.10;99.90;;;;;;4991344;28;20043;-84
2023/08/05 01:07:52;;;;;;;7.82;6.95;;;23.00;99.90;;;;;;4984950;28;20088;-84
2023/08/05 01:10:20;;;;;;;12.05;7.07;;;22.90;99.90;;;;;;5002916;28;20564;-84
2023/08/05 01:12:47;;;;;;;8.15;7.35;;;22.90;99.90;;;;;;4995773;28;20121;-84
2023/08/05 01:15:15;;;;;;;8.38;6.72;;;22.90;99.90;;;;;;4981545;28;20101;-84
2023/08/05 01:17:43;;;;;;;8.90;6.72;;;23.00;99.90;;;;;;4983340;28;20054;-85
2023/08/05 01:20:13;;;;;;;9.35;7.72;;;23.00;99.90;;;;;;4982731;28;20077;-83
2023/08/05 01:22:43;;;;;;;8.77;7.70;;;23.10;99.90;;;;;;4998692;28;20051;-85
2023/08/05 01:25:37;;;;;;;9.90;7.82;;;23.10;99.90;;;;;;4983953;28;20050;-84
2023/08/05 01:28:05;;;;;;;9.63;7.20;;;23.20;99.90;;;;;;4978070;28;20070;-84
2023/08/05 01:30:33;;;;;;;8.75;7.35;;;23.20;99.90;;;;;;4981014;28;20034;-85
2023/08/05 01:33:01;;;;;;;11.35;7.40;;;23.10;99.90;;;;;;4995735;28;20116;-85
2023/08/05 01:35:29;;;;;;;10.35;7.65;;;23.10;99.90;;;;;;4981418;28;20074;-86
2023/08/05 01:37:56;;;;;;;8.90;7.22;;;23.10;99.90;;;;;;4986898;28;20047;-84
2023/08/05 01:40:28;;;;;;;10.38;7.78;;;23.10;99.90;;;;;;4974467;28;20046;-85
2023/08/05 01:42:58;;;;;;;8.63;7.53;;;23.20;99.90;;;;;;4981638;28;20046;-85
2023/08/05 01:45:26;;;;;;;9.45;7.82;;;23.10;99.90;;;;;;4986820;28;20065;-83
2023/08/05 01:47:53;;;;;;;8.55;7.53;;;23.00;99.90;;;;;;4978385;28;20047;-84
2023/08/05 01:50:21;;;;;;;9.85;7.93;;;22.80;99.90;;;;;;4973350;28;20045;-83
2023/08/05 01:52:48;;;;;;;9.23;8.18;;;22.80;99.90;;;;;;4975025;28;20066;-84
2023/08/05 01:55:16;;;;;;;12.43;8.35;;;22.70;99.90;;;;;;4980667;28;20109;-84
2023/08/05 01:57:43;;;;;;;11.43;7.45;;;22.70;99.90;;;;;;5005051;28;20051;-85
2023/08/05 02:00:12;;;;;;;9.95;7.80;;;22.70;99.90;;;;;;4979794;28;20055;-83
2023/08/05 02:02:42;;;;;;;9.20;7.95;;;22.70;99.90;;;;;;4981316;28;20534;-84
2023/08/05 02:05:10;;;;;;;11.20;8.32;;;22.70;99.90;;;;;;4988183;28;20046;-83
2023/08/05 02:07:38;;;;;;;10.95;8.35;;;22.70;99.90;;;;;;5004773;28;20499;-84
2023/08/05 02:10:06;;;;;;;9.52;7.40;;;22.70;99.90;;;;;;4998503;28;20099;-85
2023/08/05 02:12:33;;;;;;;9.07;7.88;;;22.80;99.90;;;;;;4992979;28;20069;-85
2023/08/05 02:15:01;;;;;;;12.05;7.13;;;22.80;99.90;;;;;;4989620;28;20057;-84
2023/08/05 02:17:31;;;;;;;9.88;7.72;;;22.80;99.90;;;;;;4987711;28;20047;-85
2023/08/05 02:19:59;;;;;;;8.95;7.75;;;22.80;99.90;;;;;;4985992;28;20120;-84
2023/08/05 02:22:26;;;;;;;7.97;7.13;;;22.80;99.90;;;;;;4997301;28;20502;-85
2023/08/05 02:24:53;;;;;;;11.00;7.47;;;22.90;99.90;;;;;;4983083;28;20073;-85
2023/08/05 02:27:20;;;;;;;8.18;6.97;;;22.80;99.90;;;;;;4982535;28;20046;-83
2023/08/05 02:29:48;;;;;;;8.93;7.55;;;22.80;99.90;;;;;;4988555;28;20047;-85
2023/08/05 02:32:15;;;;;;;9.15;7.68;;;22.80;99.90;;;;;;4981314;28;20042;-84
2023/08/05 02:34:44;;;;;;;9.48;7.20;;;22.80;99.90;;;;;;4976482;28;20525;-82
2023/08/05 02:37:11;;;;;;;10.85;7.75;;;22.80;99.90;;;;;;4979740;28;20105;-82
2023/08/05 02:39:40;;;;;;;10.00;6.95;;;22.80;99.90;;;;;;4987820;28;20038;-84
2023/08/05 02:42:08;;;;;;;9.90;7.50;;;22.80;99.90;;;;;;4995634;28;20143;-85
2023/08/05 02:44:35;;;;;;;11.13;8.32;;;22.80;99.90;;;;;;4993926;28;20125;-84
2023/08/05 02:47:02;;;;;;;10.32;8.10;;;22.80;99.90;;;;;;5001985;28;20534;-84
2023/08/05 02:49:30;;;;;;;9.75;8.50;;;22.70;99.90;;;;;;4981438;28;20050;-85
2023/08/05 02:51:59;;;;;;;9.30;7.82;;;22.70;99.90;;;;;;4995835;28;20046;-85
2023/08/05 02:54:26;;;;;;;10.05;7.93;;;22.80;99.90;;;;;;4994182;28;20069;-85
2023/08/05 02:56:53;;;;;;;11.75;8.45;;;22.80;99.90;;;;;;5003001;28;20065;-85
2023/08/05 02:59:21;;;;;;;10.52;8.43;;;22.70;99.90;;;;;;4985778;28;20050;-85
2023/08/05 03:04:23;;;;;;;;;;;22.60;99.90;;;;;;5007959;28;20107;-85
2023/08/05 03:06:51;;;;;;;12.32;9.13;;;22.60;99.90;;;;;;5010092;28;19921;-86
2023/08/05 03:09:19;;;;;;;12.15;8.85;;;22.50;99.90;;;;;;5009437;28;20058;-86
2023/08/05 03:11:47;;;;;;;14.32;9.15;;;22.40;99.90;;;;;;5015151;28;20049;-86
2023/08/05 03:14:14;;;;;;;10.52;7.82;;;22.40;99.90;;;;;;5007189;28;20041;-85
2023/08/05 03:16:42;;;;;;;9.05;7.88;;;22.40;99.90;;;;;;5008918;28;20453;-85
2023/08/05 03:19:16;;;;;;;10.00;7.60;;;22.40;99.90;;;;;;5009088;28;20331;-85
2023/08/05 03:21:43;;;;;;;8.93;7.30;;;22.40;99.90;;;;;;5008297;28;20056;-86
2023/08/05 03:24:11;;;;;;;8.60;7.00;;;22.40;99.90;;;;;;5007991;28;20037;-86
2023/08/05 03:26:43;;;;;;;9.43;7.20;;;22.40;99.90;;;;;;5009004;28;20063;-85
2023/08/05 03:29:13;;;;;;;9.65;6.88;;;22.40;99.90;;;;;;5000320;28;20045;-85
2023/08/05 03:31:42;;;;;;;10.10;7.53;;;22.40;99.90;;;;;;5009367;28;20564;-85
2023/08/05 03:34:10;;;;;;;8.77;6.85;;;22.40;99.90;;;;;;5017698;28;20056;-84
2023/08/05 03:36:38;;;;;;;10.02;8.68;;;22.40;99.90;;;;;;5014665;28;20077;-86
2023/08/05 03:39:07;;;;;;;10.43;8.23;;;22.30;99.90;;;;;;5021889;28;20497;-86
2023/08/05 03:41:34;;;;;;;10.07;7.90;;;22.40;99.90;;;;;;5028183;28;20042;-85
2023/08/05 03:44:03;;;;;;;9.88;7.90;;;22.30;99.90;;;;;;5011602;28;20042;-86
2023/08/05 03:46:31;;;;;;;11.68;8.38;;;22.30;99.90;;;;;;5012050;28;20070;-86
2023/08/05 03:49:02;;;;;;;10.57;8.73;;;22.20;99.90;;;;;;5011697;28;20050;-86
2023/08/05 03:51:30;;;;;;;8.77;7.88;;;22.20;99.90;;;;;;5010814;28;20050;-86
2023/08/05 03:54:01;;;;;;;9.82;7.72;;;22.10;99.90;;;;;;5008950;28;20084;-87
2023/08/05 03:56:30;;;;;;;9.40;7.63;;;22.10;99.90;;;;;;5009123;28;20054;-86
2023/08/05 03:58:59;;;;;;;12.82;8.15;;;22.00;99.90;;;;;;5009062;28;20250;-85
2023/08/05 04:01:30;;;;;;;13.93;8.13;;;22.10;99.90;;;;;;5007438;28;20037;-86
2023/08/05 04:03:58;;;;;;;10.35;7.50;;;22.10;99.90;;;;;;5023736;28;20057;-86
2023/08/05 04:06:26;;;;;;;10.02;7.60;;;22.10;99.90;;;;;;5025111;28;20062;-87
2023/08/05 04:08:54;;;;;;;11.80;8.25;;;22.10;99.90;;;;;;5010035;28;20489;-87
2023/08/05 04:11:21;;;;;;;10.63;8.27;;;22.10;99.90;;;;;;5007383;28;20045;-86
2023/08/05 04:13:51;;;;;;;11.52;7.57;;;22.20;99.90;;;;;;5022465;28;20039;-87
2023/08/05 04:16:19;;;;;;;10.43;7.88;;;22.30;99.90;;;;;;5008709;28;20057;-86
2023/08/05 04:18:49;;;;;;;11.45;8.15;;;22.30;99.90;;;;;;5009602;28;20042;-86
2023/08/05 04:21:16;;;;;;;10.13;8.32;;;22.30;99.90;;;;;;5008497;28;20038;-86
2023/08/05 04:23:44;;;;;;;10.07;8.48;;;22.40;99.90;;;;;;5010071;28;20057;-86
2023/08/05 04:26:11;;;;;;;10.77;8.85;;;22.40;99.90;;;;;;5008334;28;20046;-85
2023/08/05 04:28:39;;;;;;;9.70;8.63;;;22.20;99.90;;;;;;5009715;28;20512;-85
2023/08/05 04:31:06;;;;;;;10.60;8.82;;;22.10;99.90;;;;;;5009419;28;20070;-85
2023/08/05 04:33:33;;;;;;;11.90;9.07;;;21.90;99.90;;;;;;5012800;28;20049;-85
2023/08/05 04:36:02;;;;;;;11.30;8.98;;;21.90;99.90;;;;;;5025344;28;20088;-85
2023/08/05 04:38:29;;;;;;;11.55;8.48;;;22.00;99.90;;;;;;5033588;28;20034;-86
2023/08/05 04:40:56;;;;;;;11.93;8.68;;;22.20;99.90;;;;;;5032787;28;20037;-85
2023/08/05 04:43:24;;;;;;;10.15;8.43;;;22.50;99.90;;;;;;5032853;28;20071;-85
2023/08/05 04:45:51;;;;;;;10.68;9.13;;;22.60;99.90;;;;;;5033690;28;20022;-86
2023/08/05 04:48:19;;;;;;;13.73;9.13;;;22.70;99.90;;;;;;5037519;28;20049;-86
2023/08/05 04:50:46;;;;;;;12.63;8.60;;;22.70;99.90;;;;;;5030210;28;20046;-86
2023/08/05 04:53:21;;;;;;;11.80;8.50;;;22.80;99.90;;;;;;5040601;28;20054;-86
2023/08/05 04:55:48;;;;;;;13.73;9.07;;;23.00;99.90;;;;;;5039488;28;20057;-86
2023/08/05 04:58:15;;;;;;;10.70;8.23;;;23.30;99.90;;;;;;5038924;28;20025;-87
2023/08/05 05:00:43;;;;;;;12.73;9.18;;;23.90;99.90;;;;;;5037188;28;20053;-86
2023/08/05 05:03:10;;;;;;;13.77;9.52;;;24.50;99.90;;;;;;5035038;28;20222;-86
2023/08/05 05:05:37;;;;;;;10.25;8.27;;;25.00;99.90;;;;;;5034088;28;20042;-85
2023/08/05 05:08:05;;;;;;;13.98;8.23;;;25.30;99.90;;;;;;5034849;28;20042;-86
2023/08/05 05:10:33;;;;;;;14.02;8.93;;;25.40;99.90;;;;;;5033202;28;20069;-85
2023/08/05 05:13:00;;;;;;;13.65;8.65;;;25.60;99.90;;;;;;5023605;28;20052;-85
2023/08/05 05:15:28;;;;;;;16.50;8.95;;;25.60;99.90;;;;;;5015673;28;20052;-85
2023/08/05 05:18:05;;;;;;;15.40;8.90;;;25.90;99.90;;;;;;5015282;28;20453;-85
2023/08/05 05:20:32;;;;;;;10.10;8.50;;;26.10;99.90;;;;;;5014503;28;20049;-86
2023/08/05 05:23:16;;;;;;;11.93;9.15;;;26.00;99.90;;;;;;5014443;28;20100;-84
2023/08/05 05:25:47;;;;;;;10.35;8.27;;;26.40;99.90;;;;;;5014820;28;20038;-86
2023/08/05 05:28:14;;;;;;;9.77;8.77;;;26.80;99.90;;;;;;5016608;28;20034;-86
2023/08/05 05:30:43;;;;;;;10.00;8.60;;;26.70;99.90;;;;;;5015433;28;20564;-85
2023/08/05 05:33:12;;;;;;;11.05;8.50;;;26.40;99.90;;;;;;5018394;28;20046;-85
2023/08/05 05:35:39;;;;;;;11.18;8.52;;;26.00;1.00;;;;;;5018836;28;20563;-85
2023/08/05 05:38:07;;;;;;;10.90;8.73;;;25.90;1.00;;;;;;5014428;28;20085;-87
2023/08/05 05:40:39;;;;;;;11.00;9.82;;;25.70;1.00;;;;;;5014365;28;20053;-86
2023/08/05 05:43:09;;;;;;;12.80;9.32;;;25.90;1.00;;;;;;5014684;28;20038;-85
2023/08/05 05:45:36;;;;;;;11.77;8.68;;;25.80;1.00;;;;;;5016474;28;20045;-86
2023/08/05 05:48:11;;;;;;;11.35;9.50;;;25.70;1.00;;;;;;5015172;28;20081;-86
2023/08/05 05:50:40;;;;;;;10.52;9.05;;;25.50;1.00;;;;;;5016139;28;20046;-87
2023/08/05 05:53:13;;;;;;;10.57;9.45;;;25.60;1.00;;;;;;5015371;28;20136;-87
2023/08/05 05:55:42;;;;;;;12.82;10.45;;;25.30;99.90;;;;;;5013767;28;20460;-86
2023/08/05 05:58:12;;;;;;;16.73;11.63;;;25.10;1.00;;;;;;5011683;28;20067;-87
2023/08/05 06:00:40;;;;;;;14.70;11.52;;;25.30;1.00;;;;;;5012769;28;20583;-85
2023/08/05 06:03:07;;;;;;;15.55;10.52;;;25.10;1.00;;;;;;5012127;28;20054;-86
2023/08/05 06:05:34;;;;;;;14.45;11.80;;;24.90;1.00;;;;;;5012651;28;20516;-86
2023/08/05 06:08:02;;;;;;;14.48;12.05;;;24.70;99.90;;;;;;5012524;28;20045;-86
2023/08/05 06:10:30;;;;;;;14.10;12.27;;;24.40;99.90;;;;;;5015913;28;20057;-85
2023/08/05 06:12:59;;;;;;;15.98;11.90;;;23.50;99.90;;;;;;5019733;28;20129;-85
2023/08/05 06:15:27;;;;;;;16.08;11.82;;;23.20;99.90;;;;;;5005653;28;20509;-86
2023/08/05 06:17:55;;;;;;;12.50;11.20;;;23.10;99.90;;;;;;5024490;28;20050;-86
2023/08/05 06:20:22;;;;;;;16.25;12.70;;;23.10;99.90;;;;;;5033852;28;20050;-87
2023/08/05 06:22:49;;;;;;;14.18;12.32;;;22.90;99.90;;;;;;5030222;28;20052;-87
2023/08/05 06:25:17;;;;;;;14.93;12.20;;;22.80;99.90;;;;;;5019604;28;20037;-90
2023/08/05 06:27:44;;;;;;;16.88;13.70;;;23.00;99.90;;;;;;5018257;28;20076;-89
2023/08/05 06:30:12;;;;;;;14.02;12.10;;;23.30;99.90;;;;;;5016751;28;20046;-89
2023/08/05 06:32:41;;;;;;;14.43;12.10;;;23.60;99.90;;;;;;5015502;28;20324;-88
2023/08/05 06:35:09;;;;;;;14.00;12.60;;;23.50;99.90;;;;;;5012240;28;20049;-85
2023/08/05 06:37:37;;;;;;;14.55;13.02;;;23.60;99.90;;;;;;5012337;28;20046;-86
2023/08/05 06:40:05;;;;;;;20.75;17.08;;;23.90;99.90;;;;;;5006740;28;20456;-87
2023/08/05 06:42:34;;;;;;;22.63;20.17;;;24.00;99.90;;;;;;5012518;28;20118;-84
2023/08/05 06:45:02;;;;;;;19.40;16.52;;;24.10;99.90;;;;;;5010399;28;20050;-84
2023/08/05 06:47:31;;;;;;;18.15;14.85;;;24.10;99.90;;;;;;5011210;28;20049;-85
2023/08/05 06:50:02;;;;;;;13.18;11.73;;;24.20;99.90;;;;;;5016426;28;20133;-86
2023/08/05 06:52:29;;;;;;;20.10;13.23;;;24.30;99.90;;;;;;5011828;28;20049;-87
2023/08/05 06:54:57;;;;;;;13.65;11.82;;;24.30;99.90;;;;;;5016094;28;20073;-87
2023/08/05 06:57:24;;;;;;;15.30;12.00;;;24.30;99.90;;;;;;5023118;28;20058;-86
2023/08/05 06:59:52;;;;;;;14.43;12.48;;;24.30;99.90;;;;;;5013891;28;20049;-88
2023/08/05 07:02:19;;;;;;;15.82;12.98;;;24.20;99.90;;;;;;5012034;28;20461;-88
2023/08/05 07:04:46;;;;;;;15.50;12.43;;;24.20;99.90;;;;;;5012348;28;20556;-88
2023/08/05 07:07:15;;;;;;;24.05;18.90;;;24.30;99.90;;;;;;5011831;28;20136;-83
2023/08/05 07:09:43;;;;;;;31.85;22.17;;;24.10;99.90;;;;;;5010498;28;20042;-86
2023/08/05 07:12:10;;;;;;;24.67;18.10;;;23.90;99.90;;;;;;5009922;28;20041;-85
2023/08/05 07:14:38;;;;;;;25.35;18.35;;;23.60;99.90;;;;;;5009017;28;20037;-87
2023/08/05 07:17:06;;;;;;;21.70;16.85;;;23.50;99.90;;;;;;5010730;28;20042;-87
2023/08/05 07:19:33;;;;;;;29.80;21.02;;;23.70;99.90;;;;;;5009814;28;20062;-85
2023/08/05 07:22:00;;;;;;;29.92;21.20;;;23.90;99.90;;;;;;5011071;28;20450;-87
2023/08/05 07:24:29;;;;;;;28.17;21.15;;;23.60;99.90;;;;;;5011546;28;20052;-87
2023/08/05 07:26:56;;;;;;;24.58;18.60;;;23.80;99.90;;;;;;5011893;28;20502;-88
2023/08/05 07:29:24;;;;;;;19.42;16.70;;;24.00;99.90;;;;;;5009876;28;20050;-87
2023/08/05 07:31:51;;;;;;;20.55;17.02;;;24.10;99.90;;;;;;5010971;28;20407;-85
2023/08/05 07:34:18;;;;;;;17.90;15.27;;;24.20;99.90;;;;;;5013778;28;20096;-87
2023/08/05 07:36:46;;;;;;;18.83;16.90;;;24.10;99.90;;;;;;5012004;28;20100;-87
2023/08/05 07:39:13;;;;;;;19.00;17.00;;;24.30;99.90;;;;;;5011658;28;20062;-88
2023/08/05 07:41:42;;;;;;;20.83;18.63;;;24.60;99.90;;;;;;5013313;28;20046;-88
2023/08/05 07:44:12;;;;;;;25.38;21.40;;;24.60;99.90;;;;;;5011611;28;20427;-89
2023/08/05 07:46:40;;;;;;;20.33;17.05;;;24.80;99.90;;;;;;5008699;28;20049;-89
2023/08/05 07:49:08;;;;;;;20.35;17.50;;;24.90;99.90;;;;;;5010609;28;20153;-88
2023/08/05 07:51:35;;;;;;;20.98;18.08;;;25.00;99.90;;;;;;5013068;28;20072;-88
2023/08/05 07:54:03;;;;;;;23.85;19.38;;;25.10;99.90;;;;;;5011065;28;20042;-88
2023/08/05 07:56:32;;;;;;;23.02;20.55;;;25.20;99.90;;;;;;5010881;28;20034;-87
2023/08/05 07:59:01;;;;;;;23.10;20.70;;;25.30;99.90;;;;;;5010703;28;20046;-87
2023/08/05 08:01:28;;;;;;;19.42;17.33;;;25.30;99.90;;;;;;5010601;28;20082;-87
2023/08/05 08:04:01;;;;;;;19.63;16.23;;;25.40;99.90;;;;;;5008924;28;20134;-86
2023/08/05 08:06:28;;;;;;;24.50;19.38;;;25.10;99.90;;;;;;5011963;28;20050;-87
2023/08/05 08:08:56;;;;;;;21.08;18.88;;;25.20;99.90;;;;;;5011368;28;20080;-87
2023/08/05 08:11:23;;;;;;;21.20;18.63;;;25.20;99.90;;;;;;5011021;28;20092;-88
2023/08/05 08:13:50;;;;;;;20.95;18.58;;;25.30;99.90;;;;;;5011278;28;20180;-87
2023/08/05 08:16:20;;;;;;;20.60;18.45;;;25.30;99.90;;;;;;5015239;28;20041;-87
2023/08/05 08:18:48;;;;;;;21.42;19.13;;;25.30;99.90;;;;;;5015451;28;20046;-88
2023/08/05 08:21:15;;;;;;;27.67;23.27;;;25.20;99.90;;;;;;5012907;28;20053;-86
2023/08/05 08:23:43;;;;;;;21.42;18.90;;;25.20;99.90;;;;;;5014842;28;20049;-87
2023/08/05 08:26:10;;;;;;;22.17;19.88;;;25.30;99.90;;;;;;5018733;28;20145;-85
2023/08/05 08:31:21;;;;;;;25.63;21.45;;;25.30;99.90;;;;;;5017083;28;20081;-87
2023/08/05 08:33:49;;;;;;;21.88;18.30;;;25.30;99.90;;;;;;5014670;28;20046;-87
2023/08/05 08:36:17;;;;;;;24.05;21.25;;;25.20;99.90;;;;;;5029193;28;20042;-88
2023/08/05 08:38:45;;;;;;;30.77;26.50;;;25.30;99.90;;;;;;5014995;28;20038;-86
2023/08/05 08:41:12;;;;;;;27.60;21.58;;;25.40;99.90;;;;;;5031721;28;20450;-88
2023/08/05 08:43:41;;;;;;;27.15;21.77;;;25.40;99.90;;;;;;5016286;28;20077;-86
2023/08/05 08:46:10;;;;;;;28.33;22.00;;;25.40;99.90;;;;;;5032906;28;20038;-86
2023/08/05 08:48:40;;;;;;;25.98;22.05;;;25.40;99.90;;;;;;5031175;28;20048;-85
2023/08/05 08:51:08;;;;;;;26.52;23.52;;;25.40;99.90;;;;;;5031177;28;20050;-86
2023/08/05 08:53:36;;;;;;;23.60;21.02;;;25.40;99.90;;;;;;5014647;28;20048;-85
2023/08/05 08:56:07;;;;;;;23.90;21.35;;;25.40;99.90;;;;;;5018954;28;20049;-92
2023/08/05 08:58:35;;;;;;;28.17;23.80;;;25.30;99.90;;;;;;5015674;28;20069;-84
2023/08/05 09:01:05;;;;;;;33.65;28.75;;;25.20;99.90;;;;;;5013363;28;20038;-85
2023/08/05 09:03:34;;;;;;;38.65;30.60;;;25.20;99.90;;;;;;5012989;28;20144;-87
2023/08/05 09:06:04;;;;;;;37.00;29.50;;;25.10;99.90;;;;;;5013739;28;20068;-85
2023/08/05 09:08:31;;;;;;;30.48;26.23;;;25.00;99.90;;;;;;5012360;28;20117;-85
2023/08/05 09:11:00;;;;;;;35.65;30.50;;;24.90;99.90;;;;;;5012920;28;20042;-84
2023/08/05 09:13:27;;;;;;;35.10;28.70;;;24.90;99.90;;;;;;5011803;28;20394;-85
2023/08/05 09:15:56;;;;;;;32.80;26.67;;;24.80;99.90;;;;;;5013740;28;20042;-83
2023/08/05 09:18:23;;;;;;;27.17;23.88;;;24.90;99.90;;;;;;5013960;28;20522;-85
2023/08/05 09:20:52;;;;;;;46.35;35.92;;;25.10;99.90;;;;;;5011138;28;20069;-85
2023/08/05 09:23:20;;;;;;;30.75;25.90;;;25.30;99.90;;;;;;5010538;28;20041;-84
2023/08/05 09:25:49;;;;;;;26.02;21.90;;;25.40;99.90;;;;;;5011713;28;20038;-84
2023/08/05 09:28:31;;;;;;;38.42;25.83;;;25.50;99.90;;;;;;5011160;28;20045;-84
2023/08/05 09:31:15;;;;;;;29.73;24.75;;;25.60;99.90;;;;;;5013030;28;20076;-84
2023/08/05 09:33:43;;;;;;;30.70;24.05;;;25.30;99.90;;;;;;5010147;28;20042;-83
2023/08/05 09:36:11;;;;;;;31.92;24.17;;;24.90;99.90;;;;;;5010289;28;20041;-83
2023/08/05 09:38:40;;;;;;;28.25;24.05;;;24.70;99.90;;;;;;5011412;28;20103;-85
2023/08/05 09:41:08;;;;;;;31.77;22.70;;;24.50;99.90;;;;;;5010446;28;20107;-88
2023/08/05 09:43:40;;;;;;;29.30;24.15;;;24.40;99.90;;;;;;5010583;28;20125;-84
2023/08/05 09:46:11;;;;;;;33.83;27.90;;;24.40;99.90;;;;;;5012248;28;20042;-87
2023/08/05 09:48:43;;;;;;;26.00;21.75;;;24.40;99.90;;;;;;5010737;28;20045;-85
2023/08/05 09:51:16;;;;;;;24.80;21.13;;;24.40;99.90;;;;;;5011000;28;20120;-85
2023/08/05 09:53:49;;;;;;;27.13;20.25;;;24.30;99.90;;;;;;5011738;28;20124;-85
2023/08/05 09:56:20;;;;;;;25.48;21.02;;;24.40;99.90;;;;;;5011782;28;20122;-84
2023/08/05 09:58:49;;;;;;;23.55;19.85;;;24.50;99.90;;;;;;5010817;28;20052;-85
2023/08/05 10:01:19;;;;;;;24.02;20.88;;;24.50;99.90;;;;;;5010589;28;20077;-83
2023/08/05 10:03:50;;;;;;;26.33;20.83;;;24.50;99.90;;;;;;5011638;28;20057;-85
2023/08/05 10:06:18;;;;;;;19.15;17.00;;;24.40;99.90;;;;;;5012363;28;20265;-85
2023/08/05 10:08:48;;;;;;;24.58;19.33;;;24.20;99.90;;;;;;5011620;28;20046;-85
2023/08/05 10:11:16;;;;;;;19.52;17.30;;;24.30;99.90;;;;;;5012057;28;20040;-84
2023/08/05 10:13:46;;;;;;;21.83;17.77;;;24.80;99.90;;;;;;5022437;28;20034;-82
2023/08/05 10:16:14;;;;;;;18.27;15.80;;;25.00;99.90;;;;;;5026877;28;20065;-83
2023/08/05 10:18:42;;;;;;;23.75;20.17;;;25.10;99.90;;;;;;5044543;28;20046;-83
2023/08/05 10:21:10;;;;;;;24.00;18.80;;;25.30;99.90;;;;;;5030328;28;20046;-83
2023/08/05 10:23:38;;;;;;;18.95;15.48;;;25.40;99.90;;;;;;5024706;28;20100;-84
2023/08/05 10:26:07;;;;;;;17.13;13.02;;;25.30;99.90;;;;;;5039099;28;20044;-83
2023/08/05 10:28:50;;;;;;;15.85;12.27;;;25.10;99.90;;;;;;5018548;28;20053;-83
2023/08/05 10:31:28;;;;;;;15.88;12.82;;;25.00;99.90;;;;;;5016624;28;20037;-83
2023/08/05 10:34:12;;;;;;;14.02;11.77;;;24.90;99.90;;;;;;5021347;28;20053;-82
2023/08/05 10:36:44;;;;;;;12.15;10.50;;;25.00;99.90;;;;;;5010821;28;20474;-83
2023/08/05 10:39:51;;;;;;;13.00;10.77;;;25.30;99.90;;;;;;5010977;28;20375;-84
2023/08/05 10:42:31;;;;;;;;;;;25.40;99.90;;;;;;5017478;28;20053;-83
2023/08/05 10:45:00;;;;;;;12.82;10.30;;;25.60;99.90;;;;;;5042598;28;19997;-84
2023/08/05 10:47:28;;;;;;;12.27;9.90;;;25.80;99.90;;;;;;5031686;28;20050;-85
2023/08/05 10:50:00;;;;;;;15.10;13.10;;;25.70;99.90;;;;;;5018082;28;20108;-83
2023/08/05 10:52:28;;;;;;;12.82;8.40;;;25.50;99.90;;;;;;5012290;28;20044;-84
2023/08/05 10:54:55;;;;;;;12.50;10.23;;;25.20;99.90;;;;;;5011243;28;20128;-83
2023/08/05 10:57:54;;;;;;;10.77;8.60;;;24.90;99.90;;;;;;5013953;28;20410;-84
2023/08/05 11:00:25;;;;;;;12.07;7.72;;;24.70;99.90;;;;;;5013889;28;20042;-88
2023/08/05 11:03:30;;;;;;;9.68;7.53;;;24.60;99.90;;;;;;5012757;28;20064;-83
2023/08/05 11:06:01;;;;;;;11.82;8.52;;;24.60;99.90;;;;;;5029364;28;20057;-81
2023/08/05 11:08:30;;;;;;;8.95;7.47;;;24.50;99.90;;;;;;5008789;28;20061;-83
2023/08/05 11:11:00;;;;;;;6.65;5.80;;;24.70;99.90;;;;;;5013209;28;20133;-83
2023/08/05 11:13:32;;;;;;;8.65;7.00;;;24.70;99.90;;;;;;5025105;28;20049;-85
2023/08/05 11:16:18;;;;;;;8.80;5.88;;;24.70;99.90;;;;;;5011929;28;20042;-86
2023/08/05 11:18:47;;;;;;;8.75;6.70;;;24.50;99.90;;;;;;5009652;28;20069;-82
2023/08/05 11:21:17;;;;;;;10.82;8.00;;;24.40;99.90;;;;;;5009549;28;20050;-85
2023/08/05 11:23:45;;;;;;;12.10;8.80;;;24.30;99.90;;;;;;4991742;28;20136;-84
2023/08/05 11:26:13;;;;;;;9.95;8.00;;;24.50;99.90;;;;;;5008846;28;20571;-81
2023/08/05 11:28:46;;;;;;;10.88;8.40;;;24.70;99.90;;;;;;5008985;28;20049;-83
2023/08/05 11:31:25;;;;;;;13.60;9.55;;;24.70;99.90;;;;;;5010206;28;20045;-83
2023/08/05 11:33:53;;;;;;;11.40;9.65;;;24.60;99.90;;;;;;5009022;28;20042;-84
2023/08/05 11:36:25;;;;;;;14.13;11.40;;;24.50;99.90;;;;;;5009717;28;20137;-83
2023/08/05 11:38:56;;;;;;;12.98;10.55;;;24.50;99.90;;;;;;5009272;28;20065;-84
2023/08/05 11:41:24;;;;;;;11.48;9.50;;;24.50;99.90;;;;;;5008563;28;20037;-85
2023/08/05 11:43:53;;;;;;;11.90;8.27;;;24.40;99.90;;;;;;5008361;28;20048;-82
2023/08/05 11:46:27;;;;;;;11.38;8.40;;;24.20;99.90;;;;;;5009182;28;20037;-84
2023/08/05 11:49:08;;;;;;;9.68;8.23;;;23.90;99.90;;;;;;5011141;28;20058;-85
2023/08/05 11:51:49;;;;;;;10.32;7.82;;;23.80;99.90;;;;;;5008660;28;20100;-86
2023/08/05 11:54:29;;;;;;;20.83;11.63;;;23.50;99.90;;;;;;5009059;28;20034;-86
2023/08/05 11:57:01;;;;;;;15.18;9.73;;;23.30;99.90;;;;;;5008082;28;20034;-85
2023/08/05 11:59:40;;;;;;;16.00;10.20;;;22.80;99.90;;;;;;5008736;28;20126;-85
2023/08/05 12:02:10;;;;;;;12.43;9.25;;;22.80;99.90;;;;;;5009137;28;20042;-87
2023/08/05 12:04:45;;;;;;;15.07;9.82;;;22.60;99.90;;;;;;5010071;28;20045;-86
2023/08/05 12:07:14;;;;;;;10.90;8.15;;;22.50;99.90;;;;;;5010819;28;20058;-89
2023/08/05 12:09:42;;;;;;;14.55;10.02;;;22.40;99.90;;;;;;5009296;28;20045;-89
2023/08/05 12:12:15;;;;;;;11.65;8.45;;;22.30;99.90;;;;;;5016485;28;20048;-88
2023/08/05 12:14:44;;;;;;;10.48;8.15;;;21.90;99.90;;;;;;5018688;28;20041;-88
2023/08/05 12:17:12;;;;;;;13.27;9.63;;;21.60;99.90;;;;;;5017127;28;20037;-89
2023/08/05 12:19:41;;;;;;;23.40;20.48;;;21.50;99.90;;;;;;5017818;28;20125;-87
2023/08/05 12:22:09;;;;;;;17.05;15.25;;;21.80;99.90;;;;;;5015685;28;20038;-89
2023/08/05 12:24:39;;;;;;;12.85;10.23;;;22.10;99.90;;;;;;5014972;28;20042;-85
2023/08/05 12:27:09;;;;;;;12.65;9.95;;;22.30;99.90;;;;;;5009335;28;20052;-88
2023/08/05 12:29:37;;;;;;;17.15;11.15;;;22.60;99.90;;;;;;5028459;28;20144;-86
2023/08/05 12:32:06;;;;;;;9.20;8.20;;;22.80;99.90;;;;;;5010713;28;20038;-84
2023/08/05 12:34:37;;;;;;;9.73;8.25;;;22.70;99.90;;;;;;5008549;28;20049;-82
2023/08/05 12:37:04;;;;;;;11.75;9.10;;;22.80;99.90;;;;;;5010235;28;20485;-83
2023/08/05 12:39:32;;;;;;;10.32;8.20;;;22.90;99.90;;;;;;5011269;28;20038;-86
2023/08/05 12:41:59;;;;;;;11.93;8.93;;;22.90;99.90;;;;;;5021793;28;20050;-85
2023/08/05 12:44:26;;;;;;;10.23;8.35;;;23.00;99.90;;;;;;5013772;28;20411;-85
2023/08/05 12:46:54;;;;;;;9.25;6.82;;;23.20;99.90;;;;;;5011156;28;20528;-85
2023/08/05 12:49:24;;;;;;;9.88;6.85;;;23.10;99.90;;;;;;5019480;28;20106;-86
2023/08/05 12:51:52;;;;;;;11.10;7.82;;;23.20;99.90;;;;;;5019655;28;20046;-84